createdAt,value
2018-12-31T00:02:22.716Z,8.60
2018-12-31T00:04:56.825Z,8.61
2018-12-31T00:07:31.483Z,8.61
2018-12-31T00:10:06.398Z,8.62
2018-12-31T00:12:39.308Z,8.63
2018-12-31T00:15:14.524Z,8.64
2018-12-31T00:17:47.940Z,8.64
2018-12-31T00:20:21.768Z,8.65
2018-12-31T00:22:56.804Z,8.70
2018-12-31T00:25:33.197Z,8.69
2018-12-31T00:28:06.604Z,8.69
2018-12-31T00:30:40.527Z,8.68
2018-12-31T00:33:16.466Z,8.69
2018-12-31T00:35:50.304Z,8.70
2018-12-31T00:38:23.349Z,8.71
2018-12-31T00:40:59.539Z,8.71
2018-12-31T00:43:33.107Z,8.71
2018-12-31T00:46:06.216Z,8.73
2018-12-31T00:48:39.551Z,8.73
2018-12-31T00:51:12.491Z,8.73
2018-12-31T00:53:46.200Z,8.74
2018-12-31T00:56:20.349Z,8.75
2018-12-31T00:58:54.324Z,8.76
2018-12-31T01:01:27.495Z,8.76
2018-12-31T01:04:00.833Z,8.77
2018-12-31T01:06:33.731Z,8.77
2018-12-31T01:09:08.631Z,8.77
2018-12-31T01:11:42.029Z,8.77
2018-12-31T01:14:15.255Z,8.78
2018-12-31T01:16:48.298Z,8.78
2018-12-31T01:19:21.724Z,8.79
2018-12-31T01:21:54.757Z,8.79
2018-12-31T01:24:28.039Z,8.79
2018-12-31T01:27:01.722Z,8.80
2018-12-31T01:29:34.888Z,8.80
2018-12-31T01:32:07.760Z,8.80
2018-12-31T01:34:43.516Z,8.82
2018-12-31T01:37:16.483Z,8.82
2018-12-31T01:39:49.627Z,8.82
2018-12-31T01:42:23.197Z,8.84
2018-12-31T01:44:56.135Z,8.84
2018-12-31T01:47:30.544Z,8.84
2018-12-31T01:50:04.510Z,8.84
2018-12-31T01:52:37.532Z,8.84
2018-12-31T01:55:10.561Z,8.84
2018-12-31T01:57:45.641Z,8.84
2018-12-31T02:00:17.766Z,8.84
2018-12-31T02:02:50.719Z,8.85
2018-12-31T02:05:25.196Z,8.86
2018-12-31T02:07:58.072Z,8.85
2018-12-31T02:10:30.913Z,8.85
2018-12-31T02:13:04.298Z,8.85
2018-12-31T02:15:37.259Z,8.86
2018-12-31T02:18:10.251Z,8.86
2018-12-31T02:20:44.318Z,8.85
2018-12-31T02:23:17.500Z,8.85
2018-12-31T02:25:51.242Z,8.88
2018-12-31T02:28:25.013Z,8.92
2018-12-31T02:30:59.981Z,8.95
2018-12-31T02:33:35.159Z,8.93
2018-12-31T02:36:09.540Z,8.92
2018-12-31T02:38:43.395Z,8.90
2018-12-31T02:41:17.850Z,8.89
2018-12-31T02:43:52.373Z,8.90
2018-12-31T02:46:25.243Z,8.89
2018-12-31T02:48:59.168Z,8.89
2018-12-31T02:51:32.581Z,8.88
2018-12-31T02:54:07.338Z,8.88
2018-12-31T02:56:41.053Z,8.88
2018-12-31T02:59:15.584Z,8.89
2018-12-31T03:01:49.138Z,8.89
2018-12-31T03:04:22.034Z,8.88
2018-12-31T03:06:55.987Z,8.93
2018-12-31T03:09:28.829Z,8.90
2018-12-31T03:12:01.642Z,8.91
2018-12-31T03:14:35.086Z,8.91
2018-12-31T03:17:08.007Z,8.92
2018-12-31T03:19:40.795Z,8.92
2018-12-31T03:22:14.847Z,8.93
2018-12-31T03:24:47.801Z,8.94
2018-12-31T03:27:21.409Z,8.95
2018-12-31T03:29:54.793Z,8.94
2018-12-31T03:32:27.817Z,8.93
2018-12-31T03:35:01.547Z,8.94
2018-12-31T03:37:35.960Z,8.98
2018-12-31T03:40:09.016Z,8.95
2018-12-31T03:42:42.002Z,8.95
2018-12-31T03:45:17.511Z,8.98
2018-12-31T03:47:52.853Z,8.96
2018-12-31T03:50:29.335Z,8.96
2018-12-31T03:53:03.122Z,8.95
2018-12-31T03:55:36.198Z,8.99
2018-12-31T03:58:09.126Z,8.98
2018-12-31T04:00:46.791Z,8.97
2018-12-31T04:03:20.580Z,8.97
2018-12-31T04:05:54.545Z,8.98
2018-12-31T04:08:34.397Z,8.98
2018-12-31T04:11:07.364Z,8.97
2018-12-31T04:13:42.623Z,8.98
2018-12-31T04:16:16.730Z,8.98
2018-12-31T04:18:52.049Z,8.98
2018-12-31T04:21:25.076Z,8.98
2018-12-31T04:23:58.706Z,8.98
2018-12-31T04:26:31.650Z,8.99
2018-12-31T04:29:04.400Z,8.98
2018-12-31T04:31:37.408Z,8.97
2018-12-31T04:34:10.147Z,8.99
2018-12-31T04:36:45.027Z,8.99
2018-12-31T04:39:18.617Z,8.98
2018-12-31T04:41:51.678Z,8.99
2018-12-31T04:44:25.546Z,9.00
2018-12-31T04:47:01.886Z,9.00
2018-12-31T04:49:34.859Z,9.03
2018-12-31T04:52:08.278Z,9.03
2018-12-31T04:54:41.044Z,9.04
2018-12-31T04:57:14.378Z,9.05
2018-12-31T04:59:47.831Z,9.05
2018-12-31T05:02:20.865Z,9.09
2018-12-31T05:04:53.778Z,9.13
2018-12-31T05:07:27.336Z,9.10
2018-12-31T05:10:00.237Z,9.13
2018-12-31T05:12:33.229Z,9.09
2018-12-31T05:15:07.764Z,9.10
2018-12-31T05:17:40.615Z,9.09
2018-12-31T05:20:16.084Z,9.09
2018-12-31T05:22:51.334Z,9.09
2018-12-31T05:25:24.261Z,9.10
2018-12-31T05:27:57.217Z,9.10
2018-12-31T05:30:31.576Z,9.11
2018-12-31T05:33:04.497Z,9.10
2018-12-31T05:35:37.524Z,9.10
2018-12-31T05:38:12.630Z,9.10
2018-12-31T05:40:45.759Z,9.11
2018-12-31T05:43:18.847Z,9.10
2018-12-31T05:45:52.772Z,9.10
2018-12-31T05:48:25.771Z,9.09
2018-12-31T05:50:58.510Z,9.09
2018-12-31T05:53:31.990Z,9.08
2018-12-31T05:56:04.964Z,9.10
2018-12-31T05:58:38.338Z,9.10
2018-12-31T06:01:13.769Z,9.11
2018-12-31T06:03:47.804Z,9.12
2018-12-31T06:06:20.820Z,9.12
2018-12-31T06:08:56.218Z,9.13
2018-12-31T06:11:29.273Z,9.12
2018-12-31T06:14:02.504Z,9.14
2018-12-31T06:16:37.511Z,9.14
2018-12-31T06:19:10.667Z,9.15
2018-12-31T06:21:44.724Z,9.16
2018-12-31T06:24:17.966Z,9.15
2018-12-31T06:26:50.851Z,9.19
2018-12-31T06:29:24.743Z,9.18
2018-12-31T06:31:57.664Z,9.17
2018-12-31T06:34:31.056Z,9.22
2018-12-31T06:37:04.028Z,9.25
2018-12-31T06:39:37.063Z,9.22
2018-12-31T06:42:10.349Z,9.21
2018-12-31T06:44:43.703Z,9.20
2018-12-31T06:47:16.577Z,9.19
2018-12-31T06:49:53.626Z,9.20
2018-12-31T06:52:26.920Z,9.19
2018-12-31T06:54:59.882Z,9.18
2018-12-31T06:57:34.249Z,9.18
2018-12-31T07:00:07.931Z,9.19
2018-12-31T07:02:40.852Z,9.19
2018-12-31T07:05:15.312Z,9.18
2018-12-31T07:07:48.259Z,9.16
2018-12-31T07:10:21.279Z,9.18
2018-12-31T07:12:54.219Z,9.18
2018-12-31T07:15:27.241Z,9.18
2018-12-31T07:18:00.202Z,9.19
2018-12-31T07:20:33.602Z,9.20
2018-12-31T07:23:06.593Z,9.22
2018-12-31T07:25:40.625Z,9.22
2018-12-31T07:28:14.034Z,9.24
2018-12-31T07:30:47.001Z,9.29
2018-12-31T07:33:19.995Z,9.27
2018-12-31T07:35:53.272Z,9.26
2018-12-31T07:38:26.364Z,9.26
2018-12-31T07:41:00.028Z,9.29
2018-12-31T07:43:33.423Z,9.29
2018-12-31T07:46:06.312Z,9.26
2018-12-31T07:48:40.117Z,9.26
2018-12-31T07:51:15.357Z,9.26
2018-12-31T07:53:48.720Z,9.29
2018-12-31T07:56:22.609Z,9.27
2018-12-31T07:58:59.408Z,9.31
2018-12-31T08:01:32.505Z,9.30
2018-12-31T08:04:05.496Z,9.34
2018-12-31T08:06:40.271Z,9.33
2018-12-31T08:09:13.745Z,9.34
2018-12-31T08:11:48.454Z,9.32
2018-12-31T08:14:22.834Z,9.30
2018-12-31T08:16:58.687Z,9.31
2018-12-31T08:19:31.852Z,9.30
2018-12-31T08:22:05.712Z,9.29
2018-12-31T08:24:38.570Z,9.30
2018-12-31T08:27:12.430Z,9.30
2018-12-31T08:29:45.361Z,9.29
2018-12-31T08:32:26.464Z,9.30
2018-12-31T08:35:01.019Z,9.31
2018-12-31T08:37:33.985Z,9.32
2018-12-31T08:40:08.399Z,9.33
2018-12-31T08:42:41.570Z,9.31
2018-12-31T08:45:16.276Z,9.35
2018-12-31T08:47:49.429Z,9.34
2018-12-31T08:50:24.597Z,9.34
2018-12-31T08:52:57.677Z,9.34
2018-12-31T08:55:32.029Z,9.34
2018-12-31T08:58:06.068Z,9.35
2018-12-31T09:00:42.732Z,9.35
2018-12-31T09:03:16.668Z,9.35
2018-12-31T09:05:51.771Z,9.35
2018-12-31T09:08:26.717Z,9.35
2018-12-31T09:10:59.885Z,9.35
2018-12-31T09:13:34.980Z,9.35
2018-12-31T09:16:07.852Z,9.34
2018-12-31T09:18:41.145Z,9.33
2018-12-31T09:21:14.621Z,9.36
2018-12-31T09:23:48.033Z,9.35
2018-12-31T09:26:23.043Z,9.35
2018-12-31T09:28:57.441Z,9.34
2018-12-31T09:31:31.786Z,9.37
2018-12-31T09:34:06.076Z,9.39
2018-12-31T09:36:39.968Z,9.38
2018-12-31T09:39:13.818Z,9.39
2018-12-31T09:41:48.812Z,9.44
2018-12-31T09:44:29.106Z,9.44
2018-12-31T09:47:03.032Z,9.44
2018-12-31T09:49:37.010Z,9.46
2018-12-31T09:52:10.560Z,9.47
2018-12-31T09:54:43.526Z,9.54
2018-12-31T09:57:17.323Z,9.53
2018-12-31T09:59:51.527Z,9.50
2018-12-31T10:02:24.661Z,9.52
2018-12-31T10:04:58.317Z,9.52
2018-12-31T10:07:31.815Z,9.54
2018-12-31T10:10:06.624Z,9.54
2018-12-31T10:12:39.575Z,9.58
2018-12-31T10:15:17.229Z,9.61
2018-12-31T10:17:51.346Z,9.61
2018-12-31T10:20:24.985Z,9.58
2018-12-31T10:22:59.603Z,9.53
2018-12-31T10:25:33.443Z,9.52
2018-12-31T10:28:07.306Z,9.51
2018-12-31T10:30:40.427Z,9.50
2018-12-31T10:33:14.290Z,9.53
2018-12-31T10:35:48.434Z,9.55
2018-12-31T10:38:23.008Z,9.56
2018-12-31T10:40:56.155Z,9.53
2018-12-31T10:43:31.879Z,9.53
2018-12-31T10:46:05.201Z,9.53
2018-12-31T10:48:38.261Z,9.53
2018-12-31T10:51:11.793Z,9.53
2018-12-31T10:53:45.244Z,9.51
2018-12-31T10:56:20.036Z,9.51
2018-12-31T10:58:54.071Z,9.51
2018-12-31T11:01:27.437Z,9.51
2018-12-31T11:04:02.740Z,9.50
2018-12-31T11:06:38.854Z,9.53
2018-12-31T11:09:12.172Z,9.54
2018-12-31T11:11:50.596Z,9.54
2018-12-31T11:14:26.134Z,9.54
2018-12-31T11:17:01.846Z,9.55
2018-12-31T11:19:35.938Z,9.54
2018-12-31T11:22:09.146Z,9.55
2018-12-31T11:24:42.127Z,9.57
2018-12-31T11:27:15.185Z,9.59
2018-12-31T11:29:48.449Z,9.58
2018-12-31T11:32:21.511Z,9.65
2018-12-31T11:34:55.397Z,9.62
2018-12-31T11:37:34.854Z,9.59
2018-12-31T11:40:10.655Z,9.59
2018-12-31T11:42:46.406Z,9.59
2018-12-31T11:45:19.263Z,9.54
2018-12-31T11:47:52.447Z,9.51
2018-12-31T11:50:25.637Z,9.51
2018-12-31T11:53:00.453Z,9.50
2018-12-31T11:55:33.795Z,9.52
2018-12-31T11:58:06.898Z,9.51
2018-12-31T12:00:40.804Z,9.52
2018-12-31T12:03:14.348Z,9.52
2018-12-31T12:05:48.240Z,9.51
2018-12-31T12:08:21.322Z,9.51
2018-12-31T12:10:54.828Z,9.53
2018-12-31T12:13:29.445Z,9.53
2018-12-31T12:16:04.042Z,9.53
2018-12-31T12:18:37.299Z,9.58
2018-12-31T12:21:10.884Z,9.56
2018-12-31T12:23:49.654Z,9.54
2018-12-31T12:26:22.600Z,9.54
2018-12-31T12:28:57.120Z,9.54
2018-12-31T12:31:34.115Z,9.56
2018-12-31T12:34:08.691Z,9.56
2018-12-31T12:36:42.992Z,9.56
2018-12-31T12:39:18.388Z,9.54
2018-12-31T12:42:10.547Z,9.54
2018-12-31T12:44:45.522Z,9.53
2018-12-31T12:47:23.714Z,9.52
2018-12-31T12:50:02.637Z,9.57
2018-12-31T12:52:35.473Z,9.56
2018-12-31T12:55:11.599Z,9.55
2018-12-31T12:57:44.531Z,9.54
2018-12-31T13:00:17.725Z,9.60
2018-12-31T13:02:52.219Z,9.58
2018-12-31T13:05:25.760Z,9.57
2018-12-31T13:07:58.708Z,9.59
2018-12-31T13:10:41.283Z,9.57
2018-12-31T13:13:17.233Z,9.60
2018-12-31T13:15:53.765Z,9.61
2018-12-31T13:18:31.837Z,9.59
2018-12-31T13:21:13.058Z,9.58
2018-12-31T13:23:48.133Z,9.56
2018-12-31T13:26:22.405Z,9.58
2018-12-31T13:28:55.972Z,9.60
2018-12-31T13:31:29.858Z,9.62
2018-12-31T13:34:05.973Z,9.63
2018-12-31T13:36:38.844Z,9.61
2018-12-31T13:39:14.621Z,9.61
2018-12-31T13:41:47.688Z,9.61
2018-12-31T13:44:23.022Z,9.58
2018-12-31T13:46:57.544Z,9.58
2018-12-31T13:49:32.578Z,9.58
2018-12-31T13:52:07.982Z,9.58
2018-12-31T13:54:40.893Z,9.58
2018-12-31T13:57:13.877Z,9.57
2018-12-31T13:59:48.801Z,9.58
2018-12-31T14:02:21.852Z,9.58
2018-12-31T14:04:56.723Z,9.59
2018-12-31T14:07:31.504Z,9.59
2018-12-31T14:10:05.305Z,9.58
2018-12-31T14:12:38.339Z,9.58
2018-12-31T14:15:17.102Z,9.58
2018-12-31T14:17:52.593Z,9.64
2018-12-31T14:20:25.424Z,9.63
2018-12-31T14:22:59.806Z,9.57
2018-12-31T14:25:35.827Z,9.56
2018-12-31T14:28:10.037Z,9.57
2018-12-31T14:30:43.833Z,9.58
2018-12-31T14:33:16.792Z,9.58
2018-12-31T14:35:51.239Z,9.55
2018-12-31T14:38:25.844Z,9.55
2018-12-31T14:41:00.230Z,9.55
2018-12-31T14:43:34.623Z,9.60
2018-12-31T14:46:08.947Z,9.63
2018-12-31T14:48:44.589Z,9.58
2018-12-31T14:51:20.263Z,9.55
2018-12-31T14:53:53.865Z,9.54
2018-12-31T14:56:28.875Z,9.53
2018-12-31T14:59:01.843Z,9.52
2018-12-31T15:01:35.086Z,9.50
2018-12-31T15:04:09.472Z,9.48
2018-12-31T15:06:42.413Z,9.49
2018-12-31T15:09:17.701Z,9.49
2018-12-31T15:11:52.419Z,9.49
2018-12-31T15:14:25.484Z,9.47
2018-12-31T15:17:00.845Z,9.45
2018-12-31T15:19:34.784Z,9.45
2018-12-31T15:22:09.316Z,9.44
2018-12-31T15:24:44.923Z,9.44
2018-12-31T15:27:17.842Z,9.47
2018-12-31T15:29:52.925Z,9.45
2018-12-31T15:32:28.115Z,9.42
2018-12-31T15:35:01.984Z,9.39
2018-12-31T15:37:40.013Z,9.38
2018-12-31T15:40:15.302Z,9.38
2018-12-31T15:42:49.242Z,9.37
2018-12-31T15:45:22.803Z,9.36
2018-12-31T15:48:03.415Z,9.34
2018-12-31T15:50:37.919Z,9.34
2018-12-31T15:53:11.891Z,9.32
2018-12-31T15:55:44.924Z,9.38
2018-12-31T15:58:18.768Z,9.36
2018-12-31T16:00:51.688Z,9.32
2018-12-31T16:03:27.818Z,9.31
2018-12-31T16:06:02.420Z,9.30
2018-12-31T16:08:37.714Z,9.29
2018-12-31T16:11:12.668Z,9.31
2018-12-31T16:13:46.764Z,9.29
2018-12-31T16:16:19.916Z,9.27
2018-12-31T16:18:53.511Z,9.26
2018-12-31T16:21:28.380Z,9.26
2018-12-31T16:24:05.659Z,9.29
2018-12-31T16:26:40.075Z,9.29
2018-12-31T16:29:12.975Z,9.27
2018-12-31T16:31:47.861Z,9.27
2018-12-31T16:34:22.573Z,9.27
2018-12-31T16:36:57.847Z,9.26
2018-12-31T16:39:32.735Z,9.28
2018-12-31T16:42:07.706Z,9.29
2018-12-31T16:44:41.337Z,9.29
2018-12-31T16:47:15.591Z,9.28
2018-12-31T16:49:48.525Z,9.29
2018-12-31T16:52:23.580Z,9.28
2018-12-31T16:54:59.646Z,9.27
2018-12-31T16:57:34.343Z,9.26
2018-12-31T17:00:09.983Z,9.27
2018-12-31T17:02:51.737Z,9.27
2018-12-31T17:05:25.769Z,9.27
2018-12-31T17:08:05.667Z,9.27
2018-12-31T17:10:39.436Z,9.27
2018-12-31T17:13:13.077Z,9.26
2018-12-31T17:15:48.425Z,9.27
2018-12-31T17:18:24.412Z,9.27
2018-12-31T17:20:57.987Z,9.27
2018-12-31T17:23:31.861Z,9.26
2018-12-31T17:26:04.783Z,9.26
2018-12-31T17:28:38.798Z,9.26
2018-12-31T17:31:12.655Z,9.27
2018-12-31T17:33:46.145Z,9.26
2018-12-31T17:36:19.419Z,9.26
2018-12-31T17:38:52.362Z,9.26
2018-12-31T17:41:25.365Z,9.26
2018-12-31T17:43:59.624Z,9.25
2018-12-31T17:46:32.598Z,9.25
2018-12-31T17:49:07.068Z,9.24
2018-12-31T17:51:42.776Z,9.24
2018-12-31T17:54:18.253Z,9.46
2018-12-31T17:56:56.042Z,9.58
2018-12-31T17:59:30.258Z,9.47
2018-12-31T18:02:03.871Z,9.38
2018-12-31T18:04:38.249Z,9.33
2018-12-31T18:07:12.397Z,9.29
2018-12-31T18:09:45.408Z,9.25
2018-12-31T18:12:20.783Z,9.23
2018-12-31T18:14:54.271Z,9.23
2018-12-31T18:17:35.855Z,9.21
2018-12-31T18:20:11.937Z,9.20
2018-12-31T18:22:45.203Z,9.24
2018-12-31T18:25:19.540Z,9.21
2018-12-31T18:27:53.300Z,9.20
2018-12-31T18:30:27.593Z,9.18
2018-12-31T18:33:01.653Z,9.18
2018-12-31T18:35:35.449Z,9.17
2018-12-31T18:38:13.761Z,9.17
2018-12-31T18:40:50.181Z,9.18
2018-12-31T18:43:24.845Z,9.17
2018-12-31T18:46:01.995Z,9.17
2018-12-31T18:48:36.721Z,9.16
2018-12-31T18:51:12.021Z,9.23
2018-12-31T18:53:45.143Z,9.20
2018-12-31T18:56:21.686Z,9.19
2018-12-31T18:58:56.135Z,9.18
2018-12-31T19:01:33.480Z,9.17
2018-12-31T19:04:10.189Z,9.15
2018-12-31T19:06:43.144Z,9.14
2018-12-31T19:09:17.508Z,9.12
2018-12-31T19:11:53.205Z,9.10
2018-12-31T19:14:26.803Z,9.09
2018-12-31T19:17:02.227Z,9.08
2018-12-31T19:19:35.325Z,9.06
2018-12-31T19:22:09.406Z,9.07
2018-12-31T19:24:44.592Z,9.04
2018-12-31T19:27:18.898Z,9.00
2018-12-31T19:29:56.527Z,8.97
2018-12-31T19:32:32.149Z,8.94
2018-12-31T19:35:08.773Z,8.92
2018-12-31T19:37:42.997Z,8.89
2018-12-31T19:40:16.818Z,8.90
2018-12-31T19:42:53.816Z,8.87
2018-12-31T19:45:28.387Z,8.83
2018-12-31T19:48:02.851Z,8.79
2018-12-31T19:50:38.435Z,8.76
2018-12-31T19:53:11.429Z,8.76
2018-12-31T19:55:46.406Z,8.77
2018-12-31T19:58:23.506Z,8.77
2018-12-31T20:00:57.296Z,8.76
2018-12-31T20:03:38.495Z,8.76
2018-12-31T20:06:17.481Z,8.75
2018-12-31T20:08:53.014Z,8.76
2018-12-31T20:11:27.314Z,8.75
2018-12-31T20:14:01.801Z,8.74
2018-12-31T20:16:35.594Z,8.73
2018-12-31T20:19:12.208Z,8.67
2018-12-31T20:21:45.908Z,8.63
2018-12-31T20:24:21.675Z,8.57
2018-12-31T20:26:55.992Z,8.46
2018-12-31T20:29:30.969Z,8.41
2018-12-31T20:32:06.894Z,8.42
2018-12-31T20:34:39.780Z,8.45
2018-12-31T20:37:15.864Z,8.46
2018-12-31T20:39:48.825Z,8.47
2018-12-31T20:42:33.650Z,8.48
2018-12-31T20:45:18.794Z,8.53
2018-12-31T20:48:01.454Z,8.57
2018-12-31T20:50:38.443Z,8.54
2018-12-31T20:53:21.121Z,8.52
2018-12-31T20:56:00.794Z,8.51
2018-12-31T20:58:43.400Z,8.51
2018-12-31T21:01:18.145Z,8.49
2018-12-31T21:03:51.068Z,8.49
2018-12-31T21:06:24.760Z,8.51
2018-12-31T21:08:58.027Z,8.51
2018-12-31T21:11:33.829Z,8.52
2018-12-31T21:14:08.715Z,8.54
2018-12-31T21:16:42.354Z,8.56
2018-12-31T21:19:15.304Z,8.56
2018-12-31T21:21:50.283Z,8.55
2018-12-31T21:24:23.098Z,8.55
2018-12-31T21:27:00.653Z,8.54
2018-12-31T21:29:37.320Z,8.54
2018-12-31T21:32:11.054Z,8.53
2018-12-31T21:34:45.121Z,8.53
2018-12-31T21:37:18.698Z,8.53
2018-12-31T21:39:54.532Z,8.52
2018-12-31T21:42:32.233Z,8.50
2018-12-31T21:45:07.603Z,8.50
2018-12-31T21:47:43.193Z,8.49
2018-12-31T21:50:18.371Z,8.50
2018-12-31T21:52:52.406Z,8.49
2018-12-31T21:55:29.099Z,8.49
2018-12-31T21:58:03.387Z,8.50
2018-12-31T22:00:37.496Z,8.49
2018-12-31T22:03:13.546Z,8.49
2018-12-31T22:05:47.367Z,8.48
2018-12-31T22:08:23.444Z,8.49
2018-12-31T22:10:57.390Z,8.50
2018-12-31T22:13:31.366Z,8.50
2018-12-31T22:16:07.155Z,8.52
2018-12-31T22:18:42.841Z,8.53
2018-12-31T22:21:19.521Z,8.52
2018-12-31T22:23:52.354Z,8.52
2018-12-31T22:26:25.284Z,8.52
2018-12-31T22:29:01.102Z,8.52
2018-12-31T22:31:37.812Z,8.51
2018-12-31T22:34:11.777Z,8.50
2018-12-31T22:36:45.324Z,8.49
2018-12-31T22:39:20.313Z,8.49
2018-12-31T22:41:56.477Z,8.49
2018-12-31T22:44:29.507Z,8.48
2018-12-31T22:47:03.377Z,8.49
2018-12-31T22:49:37.408Z,8.48
2018-12-31T22:52:11.407Z,8.48
2018-12-31T22:54:45.698Z,8.45
2018-12-31T22:57:24.591Z,8.44
2018-12-31T22:59:58.793Z,8.43
2018-12-31T23:02:31.570Z,8.41
2018-12-31T23:05:09.601Z,8.40
2018-12-31T23:07:45.265Z,8.49
2018-12-31T23:10:20.029Z,8.44
2018-12-31T23:12:53.583Z,8.38
2018-12-31T23:15:29.998Z,8.34
2018-12-31T23:18:08.473Z,8.26
2018-12-31T23:20:44.795Z,8.22
2018-12-31T23:23:20.305Z,8.16
2018-12-31T23:26:03.208Z,8.13
2018-12-31T23:28:41.368Z,8.09
2018-12-31T23:31:17.123Z,8.07
2018-12-31T23:33:53.064Z,8.04
2018-12-31T23:36:29.201Z,8.03
2018-12-31T23:39:08.506Z,8.02
2018-12-31T23:41:42.906Z,8.01
2018-12-31T23:44:17.679Z,8.00
2018-12-31T23:46:54.717Z,8.00
2018-12-31T23:49:29.567Z,7.99
2018-12-31T23:52:10.825Z,7.98
2018-12-31T23:54:44.866Z,7.99
2018-12-31T23:57:21.069Z,7.97
